Airfield :
LOGIN :

Register | Disclaimer

   EN    FR    IT 

 










Legend :    VFR   Marginal VFR   IFR   Intensive IFR   Very Intensive IFR
Visi :
Ceiling :
>= 8 km
>= 3000ft
5 to 8 km
1000 to 3000 ft
1500m to 5 km
500 to 1000 ft
800 to 1500m
200 to 500 ft
< 800m
< 200 ft
Symbols :   Thunderstorms  Fog  Heavy snow  Heavy precipitations  Wind > 20 kt
SIGMETs :     Misc.  Thunderstorms  Icing  Turbulence  Mountain Waves  Volcanic Ashes






- Airport Elevation : 1682 ft
- IATA code : VIT


LEVT - Vitoria Gasteiz

CURRENT METAR :
  • 060430Z VRB02KT 9999 FEW018 SCT030 BKN050 10/08 Q1017

EXPIRED METARs :
  • 060400Z VRB02KT 9999 FEW018 SCT030 BKN050 10/08 Q1017
  • 060330Z 02004KT 340V050 9999 -RA FEW018 SCT030 BKN060 10/09 Q1017
  • 060300Z 01005KT 9999 FEW015 SCT030 BKN060 11/09 Q1017
  • 060230Z VRB02KT 9999 -RA FEW015 SCT030 BKN060 11/09 Q1017
  • 060200Z 00000KT 9999 -RA FEW015 SCT030 BKN060 11/08 Q1017

TAF TAF LEVT
Valid from the 06 at 00:00 until the 07 at 00:00 UTC


052300Z 0600/0624 15009KT 9999 SCT035 TX14/0615Z TN03/0606Z
TEMPO 0604/0618 3000 RA SHRA BKN010 SCT030TCU



MET'MAP, your aeronautical weather chart ! - Copyright ORBIFLY December 2007 - Disclaimer

ORBIFLY MET'MAP TEAM :

Programming & Development : Alexandra Zaïnal
Concept & original design : Baudouin d'Aumeries
Assistance for programming : Marc-Olivier Méhu
Technical & hardware support : Manuel Goepfert

Contact : metmap@orbifly.com




SOURCES & CREDITS :

   NOAA